Time;durP1;ratioP1;P1;durP2;ratioP2;P2;SDS_P1;SDS_P2;PMS_P1;PMS_P2;Temp;Humidity;BMP_temperature;BMP_pressure;BME280_temperature;BME280_humidity;BME280_pressure;Samples;Min_cycle;Max_cycle;Signal;HPM_P1;HPM_P2
2021/01/20 00:00:14;;;;;;;9.95;7.75;;;7.80;92.10;;;;;;5019855;28;20372;-73
2021/01/20 00:02:40;;;;;;;11.63;9.18;;;7.80;92.10;;;;;;5020450;28;20042;-73
2021/01/20 00:05:08;;;;;;;13.68;9.43;;;7.80;92.10;;;;;;5024678;28;20041;-74
2021/01/20 00:07:33;;;;;;;10.40;9.10;;;7.70;92.10;;;;;;5019621;28;20116;-73
2021/01/20 00:09:59;;;;;;;16.23;9.13;;;7.80;92.20;;;;;;5023775;28;20108;-74
2021/01/20 00:12:25;;;;;;;11.05;8.85;;;7.70;92.20;;;;;;5020907;28;20037;-74
2021/01/20 00:14:51;;;;;;;12.35;8.30;;;7.70;92.10;;;;;;5022490;28;20407;-73
2021/01/20 00:17:17;;;;;;;11.55;9.52;;;7.70;92.20;;;;;;5019476;28;20041;-74
2021/01/20 00:19:43;;;;;;;11.55;9.13;;;7.70;92.00;;;;;;5021167;28;20041;-74
2021/01/20 00:22:12;;;;;;;14.88;8.75;;;7.70;92.10;;;;;;5019686;28;20117;-74
2021/01/20 00:24:39;;;;;;;11.65;8.77;;;7.70;92.30;;;;;;5023006;28;20595;-74
2021/01/20 00:27:05;;;;;;;13.00;9.43;;;7.60;92.30;;;;;;5024668;28;20111;-73
2021/01/20 00:29:32;;;;;;;11.00;9.13;;;7.60;92.40;;;;;;5025476;28;20037;-73
2021/01/20 00:31:57;;;;;;;18.02;9.68;;;7.60;92.60;;;;;;5028647;28;20045;-73
2021/01/20 00:34:23;;;;;;;14.10;9.82;;;7.50;92.60;;;;;;5031562;28;20092;-74
2021/01/20 00:36:49;;;;;;;12.60;8.55;;;7.50;92.70;;;;;;5027002;28;20030;-73
2021/01/20 00:39:17;;;;;;;13.05;9.27;;;7.50;92.60;;;;;;5021072;28;20037;-73
2021/01/20 00:41:44;;;;;;;12.55;9.00;;;7.50;92.50;;;;;;5027485;28;20045;-73
2021/01/20 00:44:10;;;;;;;11.80;8.98;;;7.50;92.60;;;;;;5021996;28;20080;-73
2021/01/20 00:46:36;;;;;;;12.15;9.10;;;7.50;92.40;;;;;;5030751;28;20041;-74
2021/01/20 00:49:02;;;;;;;12.77;8.70;;;7.60;92.20;;;;;;5029473;28;20502;-74
2021/01/20 00:51:27;;;;;;;12.73;8.75;;;7.50;92.30;;;;;;5024708;28;20034;-73
2021/01/20 00:53:53;;;;;;;16.48;8.63;;;7.60;92.10;;;;;;5026176;28;20049;-74
2021/01/20 00:56:19;;;;;;;13.68;8.82;;;7.60;92.20;;;;;;5024815;28;20060;-73
2021/01/20 00:58:45;;;;;;;10.18;8.68;;;7.60;92.30;;;;;;5022484;28;20029;-73
2021/01/20 01:01:11;;;;;;;15.05;8.70;;;7.60;92.20;;;;;;5028657;28;20095;-74
2021/01/20 01:03:36;;;;;;;12.75;8.18;;;7.60;91.90;;;;;;5023521;28;20406;-73
2021/01/20 01:06:02;;;;;;;10.75;7.45;;;7.60;92.00;;;;;;5022333;28;20038;-74
2021/01/20 01:08:28;;;;;;;15.48;8.27;;;7.60;91.90;;;;;;5023438;28;20122;-73
2021/01/20 01:10:54;;;;;;;14.05;8.55;;;7.60;91.70;;;;;;5028333;28;20124;-74
2021/01/20 01:13:21;;;;;;;11.05;8.10;;;7.70;91.70;;;;;;5020359;28;20099;-74
2021/01/20 01:15:46;;;;;;;11.30;8.15;;;7.60;91.90;;;;;;5028324;28;20116;-73
2021/01/20 01:18:12;;;;;;;15.70;8.68;;;7.60;91.70;;;;;;5024227;28;20476;-73
2021/01/20 01:20:38;;;;;;;14.35;8.68;;;7.60;91.90;;;;;;5024004;28;20403;-73
2021/01/20 01:23:04;;;;;;;12.30;8.38;;;7.60;91.70;;;;;;5022732;28;20063;-74
2021/01/20 01:25:29;;;;;;;12.40;9.00;;;7.60;91.70;;;;;;5019984;28;20507;-73
2021/01/20 01:27:55;;;;;;;10.18;8.35;;;7.50;91.80;;;;;;5022693;28;20037;-73
2021/01/20 01:30:21;;;;;;;13.13;8.40;;;7.50;91.80;;;;;;5026967;28;20540;-73
2021/01/20 01:32:46;;;;;;;12.20;8.90;;;7.50;91.80;;;;;;5028194;28;20042;-73
2021/01/20 01:35:12;;;;;;;15.18;8.88;;;7.50;91.80;;;;;;5023867;28;20548;-73
2021/01/20 01:37:38;;;;;;;14.80;9.02;;;7.50;91.90;;;;;;5020790;28;20088;-73
2021/01/20 01:40:06;;;;;;;12.10;8.93;;;7.50;91.80;;;;;;5026528;28;20080;-73
2021/01/20 01:42:31;;;;;;;14.25;9.38;;;7.50;91.80;;;;;;5028172;28;20033;-73
2021/01/20 01:44:57;;;;;;;14.05;8.95;;;7.50;92.00;;;;;;5022263;28;20037;-73
2021/01/20 01:47:24;;;;;;;11.55;9.13;;;7.40;92.10;;;;;;5030814;28;20080;-73
2021/01/20 01:49:50;;;;;;;13.80;9.35;;;7.40;92.00;;;;;;5021544;28;20084;-73
2021/01/20 01:52:16;;;;;;;10.90;8.82;;;7.40;92.10;;;;;;5023581;28;20033;-73
2021/01/20 01:54:45;;;;;;;13.95;8.95;;;7.40;92.30;;;;;;5023362;28;20076;-73
2021/01/20 01:57:11;;;;;;;13.93;8.88;;;7.40;92.20;;;;;;5020796;28;20046;-73
2021/01/20 01:59:37;;;;;;;15.18;8.90;;;7.50;92.00;;;;;;5027309;28;20044;-73
2021/01/20 02:02:02;;;;;;;12.00;9.90;;;7.50;92.10;;;;;;5026276;28;20037;-73
2021/01/20 02:04:28;;;;;;;12.20;9.45;;;7.50;92.00;;;;;;5026632;28;20472;-73
2021/01/20 02:06:56;;;;;;;11.50;9.10;;;7.50;91.90;;;;;;5031787;28;20043;-73
2021/01/20 02:09:23;;;;;;;12.02;9.25;;;7.50;91.90;;;;;;5024544;28;20399;-73
2021/01/20 02:12:10;;;;;;;16.27;9.82;;;7.50;92.00;;;;;;5021880;28;20046;-73
2021/01/20 02:15:04;;;;;;;17.50;9.40;;;7.40;92.00;;;;;;5020010;28;20091;-73
2021/01/20 02:18:10;;;;;;;13.65;9.35;;;7.40;92.00;;;;;;5024981;28;20049;-73
2021/01/20 02:20:54;;;;;;;12.85;9.63;;;7.40;91.90;;;;;;5020310;28;20037;-73
2021/01/20 02:23:21;;;;;;;13.98;9.68;;;7.40;92.00;;;;;;5020730;28;20045;-73
2021/01/20 02:26:11;;;;;;;13.73;10.68;;;7.40;92.20;;;;;;5025914;28;20060;-73
2021/01/20 02:28:52;;;;;;;16.85;10.07;;;7.40;92.30;;;;;;5021690;28;20121;-73
2021/01/20 02:31:22;;;;;;;16.00;11.35;;;7.30;92.40;;;;;;5025372;28;20036;-73
2021/01/20 02:33:52;;;;;;;14.45;10.60;;;7.30;92.50;;;;;;5022017;28;20048;-73
2021/01/20 02:36:20;;;;;;;15.70;10.88;;;7.30;92.50;;;;;;5019837;28;20036;-73
2021/01/20 02:38:46;;;;;;;13.98;9.98;;;7.20;92.70;;;;;;5024916;28;20035;-73
2021/01/20 02:41:27;;;;;;;15.43;9.70;;;7.30;92.70;;;;;;5024488;28;20120;-73
2021/01/20 02:43:53;;;;;;;14.68;10.20;;;7.20;92.70;;;;;;5028176;28;20037;-73
2021/01/20 02:46:19;;;;;;;13.70;10.48;;;7.20;92.70;;;;;;5022829;28;20034;-73
2021/01/20 02:48:49;;;;;;;16.85;9.68;;;7.20;92.60;;;;;;5015188;28;20049;-73
2021/01/20 02:51:24;;;;;;;15.10;10.05;;;7.30;92.50;;;;;;5022453;28;20112;-73
2021/01/20 02:53:52;;;;;;;16.90;10.02;;;7.20;92.50;;;;;;5019424;28;20041;-73
2021/01/20 02:56:19;;;;;;;13.27;10.38;;;7.20;92.50;;;;;;5021816;28;20049;-73
2021/01/20 02:58:47;;;;;;;13.48;10.57;;;7.20;92.50;;;;;;5021217;28;20045;-73
2021/01/20 03:01:14;;;;;;;18.70;10.38;;;7.30;92.50;;;;;;5019916;28;20129;-73
2021/01/20 03:03:43;;;;;;;16.60;10.45;;;7.20;92.40;;;;;;5021254;28;20042;-73
2021/01/20 03:06:09;;;;;;;12.65;9.75;;;7.30;92.40;;;;;;5023786;28;20029;-73
2021/01/20 03:08:36;;;;;;;11.82;9.40;;;7.30;92.40;;;;;;5024585;28;20163;-73
2021/01/20 03:11:05;;;;;;;12.25;10.00;;;7.20;92.50;;;;;;5023354;28;20383;-73
2021/01/20 03:13:36;;;;;;;13.57;8.93;;;7.20;92.40;;;;;;5019670;28;20716;-73
2021/01/20 03:16:04;;;;;;;17.88;9.90;;;7.30;92.40;;;;;;5019859;28;20458;-73
2021/01/20 03:18:29;;;;;;;17.25;9.82;;;7.30;92.40;;;;;;5021000;28;20041;-73
2021/01/20 03:20:55;;;;;;;14.00;9.57;;;7.30;92.40;;;;;;5020771;28;20048;-73
2021/01/20 03:23:21;;;;;;;13.50;8.90;;;7.30;92.30;;;;;;5022397;28;20049;-73
2021/01/20 03:25:47;;;;;;;14.10;9.20;;;7.30;92.40;;;;;;5023628;28;20065;-73
2021/01/20 03:28:12;;;;;;;10.60;8.70;;;7.30;92.40;;;;;;5020205;28;20041;-73
2021/01/20 03:30:38;;;;;;;12.43;8.93;;;7.30;92.40;;;;;;5020891;28;20479;-73
2021/01/20 03:33:04;;;;;;;11.27;8.57;;;7.20;92.50;;;;;;5022505;28;20042;-74
2021/01/20 03:35:34;;;;;;;13.55;9.70;;;7.20;92.50;;;;;;5021945;28;20037;-73
2021/01/20 03:38:00;;;;;;;12.48;9.57;;;7.20;92.60;;;;;;5024317;28;20037;-73
2021/01/20 03:40:26;;;;;;;18.52;10.90;;;7.20;92.60;;;;;;5022296;28;20037;-73
2021/01/20 03:42:52;;;;;;;14.75;9.65;;;7.20;92.60;;;;;;5026416;28;20538;-73
2021/01/20 03:45:18;;;;;;;14.73;9.32;;;7.30;92.50;;;;;;5019657;28;20120;-73
2021/01/20 03:47:43;;;;;;;12.15;8.68;;;7.30;92.50;;;;;;5018780;28;20056;-74
2021/01/20 03:50:09;;;;;;;12.90;8.57;;;7.30;92.40;;;;;;5017006;28;20045;-73
2021/01/20 03:52:35;;;;;;;12.07;10.15;;;7.30;92.40;;;;;;5020422;28;20052;-73
2021/01/20 03:55:01;;;;;;;13.45;9.50;;;7.20;92.40;;;;;;5016346;28;20049;-73
2021/01/20 03:57:27;;;;;;;11.65;9.30;;;7.20;92.50;;;;;;5018111;28;20762;-73
2021/01/20 03:59:52;;;;;;;11.80;8.45;;;7.20;92.60;;;;;;5018808;28;20042;-73
2021/01/20 04:02:18;;;;;;;15.60;9.77;;;7.20;92.50;;;;;;5017572;28;20034;-73
2021/01/20 04:04:44;;;;;;;13.95;9.70;;;7.20;92.50;;;;;;5017846;28;20099;-73
2021/01/20 04:07:10;;;;;;;12.73;8.75;;;7.20;92.50;;;;;;5019389;28;20436;-74
2021/01/20 04:09:35;;;;;;;12.50;8.93;;;7.20;92.50;;;;;;5018450;28;20035;-74
2021/01/20 04:12:01;;;;;;;11.15;9.30;;;7.20;92.40;;;;;;5016895;28;20037;-73
2021/01/20 04:14:27;;;;;;;16.70;9.15;;;7.20;92.40;;;;;;5017622;28;20041;-73
2021/01/20 04:16:53;;;;;;;9.88;8.82;;;7.20;92.40;;;;;;5018674;28;20067;-74
2021/01/20 04:19:18;;;;;;;13.38;9.35;;;7.20;92.40;;;;;;5019278;28;20567;-73
2021/01/20 04:21:44;;;;;;;13.88;9.52;;;7.30;92.40;;;;;;5018693;28;20052;-74
2021/01/20 04:24:10;;;;;;;11.25;7.85;;;7.30;92.40;;;;;;5012622;28;20045;-74
2021/01/20 04:26:37;;;;;;;10.85;8.95;;;7.30;92.30;;;;;;5018361;28;20052;-74
2021/01/20 04:29:02;;;;;;;10.80;7.78;;;7.30;92.20;;;;;;5016449;28;20085;-74
2021/01/20 04:31:28;;;;;;;11.27;7.72;;;7.30;92.30;;;;;;5019212;28;20065;-73
2021/01/20 04:33:54;;;;;;;11.93;8.15;;;7.30;92.20;;;;;;5016778;28;20037;-73
2021/01/20 04:36:20;;;;;;;10.82;8.88;;;7.30;92.10;;;;;;5017651;28;20560;-73
2021/01/20 04:38:45;;;;;;;14.65;8.52;;;7.30;92.30;;;;;;5017880;28;20068;-73
2021/01/20 04:41:11;;;;;;;14.18;8.35;;;7.40;92.40;;;;;;5018937;28;20086;-74
2021/01/20 04:43:37;;;;;;;13.70;8.68;;;7.30;92.40;;;;;;5017292;28;20115;-74
2021/01/20 04:46:03;;;;;;;14.95;9.15;;;7.30;92.40;;;;;;5017224;28;20112;-74
2021/01/20 04:48:32;;;;;;;10.32;7.80;;;7.30;92.50;;;;;;5017527;28;20091;-73
2021/01/20 04:51:02;;;;;;;10.48;8.95;;;7.30;92.40;;;;;;5016928;28;20129;-73
2021/01/20 04:53:30;;;;;;;9.63;7.85;;;7.40;92.50;;;;;;5018369;28;20080;-74
2021/01/20 04:56:00;;;;;;;12.60;8.90;;;7.40;92.50;;;;;;5017183;28;20116;-74
2021/01/20 04:58:26;;;;;;;11.85;8.32;;;7.30;92.50;;;;;;5017637;28;20507;-74
2021/01/20 05:00:52;;;;;;;12.55;8.98;;;7.40;92.60;;;;;;5016473;28;20041;-74
2021/01/20 05:03:18;;;;;;;11.23;8.90;;;7.40;92.60;;;;;;5016851;28;20041;-74
2021/01/20 05:05:46;;;;;;;10.65;8.38;;;7.40;92.60;;;;;;5019775;28;20037;-74
2021/01/20 05:08:11;;;;;;;11.15;8.15;;;7.40;92.50;;;;;;5017567;28;20041;-74
2021/01/20 05:10:37;;;;;;;12.02;8.18;;;7.40;92.60;;;;;;5018579;28;20045;-73
2021/01/20 05:13:02;;;;;;;12.65;9.27;;;7.40;92.70;;;;;;5019637;28;20038;-73
2021/01/20 05:15:32;;;;;;;14.38;8.32;;;7.40;92.70;;;;;;5022291;28;20048;-74
2021/01/20 05:18:00;;;;;;;10.93;7.78;;;7.40;92.60;;;;;;5022024;28;20050;-74
2021/01/20 05:20:36;;;;;;;11.48;7.72;;;7.40;92.50;;;;;;5022666;28;20046;-73
2021/01/20 05:23:07;;;;;;;13.60;9.38;;;7.40;92.40;;;;;;5020562;28;20480;-73
2021/01/20 05:25:44;;;;;;;10.70;7.90;;;7.40;92.50;;;;;;5021159;28;20045;-73
2021/01/20 05:28:28;;;;;;;8.85;7.78;;;7.40;92.40;;;;;;5022635;28;20045;-73
2021/01/20 05:30:59;;;;;;;9.93;7.38;;;7.40;92.40;;;;;;5019623;28;20053;-73
2021/01/20 05:33:25;;;;;;;8.18;6.97;;;7.50;92.40;;;;;;5012930;28;20077;-74
2021/01/20 05:36:08;;;;;;;9.77;7.57;;;7.50;92.30;;;;;;5021513;28;20038;-73
2021/01/20 05:38:38;;;;;;;9.27;7.40;;;7.50;92.30;;;;;;5021299;28;20050;-73
2021/01/20 05:41:23;;;;;;;11.05;8.13;;;7.50;92.40;;;;;;5021176;28;22126;-73
2021/01/20 05:43:54;;;;;;;11.48;7.07;;;7.50;92.30;;;;;;5017548;28;20033;-73
2021/01/20 05:46:37;;;;;;;8.90;6.78;;;7.50;92.20;;;;;;5020158;28;20049;-74
2021/01/20 05:49:04;;;;;;;10.10;6.45;;;7.50;92.20;;;;;;5021005;28;20038;-74
2021/01/20 05:51:44;;;;;;;8.90;6.93;;;7.50;92.10;;;;;;5022724;28;20065;-74
2021/01/20 05:54:10;;;;;;;10.65;7.47;;;7.50;92.00;;;;;;5020111;28;20038;-74
2021/01/20 05:56:36;;;;;;;9.32;7.05;;;7.50;92.00;;;;;;5021303;28;20479;-74
2021/01/20 05:59:09;;;;;;;8.95;7.68;;;7.60;91.90;;;;;;5017189;28;20045;-74
2021/01/20 06:01:39;;;;;;;9.93;6.85;;;7.60;92.00;;;;;;5022092;28;20128;-73
2021/01/20 06:04:05;;;;;;;10.27;6.85;;;7.60;91.80;;;;;;5020969;28;20042;-74
2021/01/20 06:06:32;;;;;;;9.75;6.30;;;7.60;91.80;;;;;;5022004;28;20034;-73
2021/01/20 06:09:00;;;;;;;9.23;6.45;;;7.60;91.80;;;;;;5021667;28;20056;-74
2021/01/20 06:11:25;;;;;;;9.23;6.30;;;7.60;91.80;;;;;;5023291;28;20029;-73
2021/01/20 06:13:52;;;;;;;10.45;6.20;;;7.60;91.80;;;;;;5024500;28;20044;-74
2021/01/20 06:16:25;;;;;;;7.25;5.53;;;7.60;91.70;;;;;;5020058;28;20480;-74
2021/01/20 06:19:03;;;;;;;9.73;6.40;;;7.60;91.70;;;;;;5018691;28;20165;-74
2021/01/20 06:21:30;;;;;;;10.50;5.97;;;7.70;91.70;;;;;;5025413;28;20099;-73
2021/01/20 06:24:01;;;;;;;8.93;5.93;;;7.60;91.50;;;;;;5020600;28;20037;-74
2021/01/20 06:26:27;;;;;;;7.32;6.05;;;7.70;91.40;;;;;;5023715;28;20476;-74
2021/01/20 06:29:02;;;;;;;8.05;4.97;;;7.60;91.50;;;;;;5018229;28;20105;-73
2021/01/20 06:31:31;;;;;;;8.70;5.47;;;7.70;91.40;;;;;;5020900;28;20507;-73
2021/01/20 06:34:04;;;;;;;8.07;5.85;;;7.60;91.40;;;;;;5023738;28;20045;-74
2021/01/20 06:36:33;;;;;;;7.68;5.72;;;7.60;91.40;;;;;;5025820;28;20105;-74
2021/01/20 06:39:00;;;;;;;6.43;4.93;;;7.60;91.50;;;;;;5028013;28;20042;-74
2021/01/20 06:41:40;;;;;;;7.97;5.47;;;7.60;91.40;;;;;;5025959;28;20057;-73
2021/01/20 06:44:07;;;;;;;7.65;5.90;;;7.70;91.30;;;;;;5020939;28;20048;-74
2021/01/20 06:46:33;;;;;;;8.40;5.65;;;7.70;91.30;;;;;;5024048;28;20072;-74
2021/01/20 06:48:59;;;;;;;9.85;5.88;;;7.70;91.30;;;;;;5026259;28;20756;-74
2021/01/20 06:51:26;;;;;;;9.80;6.13;;;7.70;91.30;;;;;;5025903;28;20136;-74
2021/01/20 06:54:13;;;;;;;11.30;6.38;;;7.70;91.30;;;;;;5020582;28;20060;-74
2021/01/20 06:56:50;;;;;;;9.32;5.80;;;7.70;91.40;;;;;;5022495;28;20040;-74
2021/01/20 06:59:22;;;;;;;9.70;6.30;;;7.70;91.40;;;;;;5028332;28;20549;-74
2021/01/20 07:02:05;;;;;;;6.70;5.95;;;7.70;91.40;;;;;;5021633;28;20127;-73
2021/01/20 07:04:37;;;;;;;8.63;5.88;;;7.70;91.50;;;;;;5021983;28;20034;-73
2021/01/20 07:07:08;;;;;;;7.55;5.63;;;7.80;91.50;;;;;;5025272;28;20041;-74
2021/01/20 07:09:49;;;;;;;7.70;5.50;;;7.70;91.50;;;;;;5021763;28;20046;-74
2021/01/20 07:12:21;;;;;;;7.72;6.05;;;7.80;91.60;;;;;;5024904;28;20132;-74
2021/01/20 07:14:51;;;;;;;10.50;6.65;;;7.80;91.70;;;;;;5019077;28;20124;-74
2021/01/20 07:17:17;;;;;;;7.18;5.65;;;7.70;92.00;;;;;;5022745;28;20420;-73
2021/01/20 07:19:47;;;;;;;7.57;5.40;;;7.70;92.20;;;;;;5021425;28;20048;-74
2021/01/20 07:22:14;;;;;;;7.40;5.82;;;7.70;92.30;;;;;;5021027;28;21355;-73
2021/01/20 07:24:40;;;;;;;7.90;6.47;;;7.70;92.40;;;;;;5018841;28;20476;-73
2021/01/20 07:27:07;;;;;;;6.07;5.15;;;7.70;92.50;;;;;;5021994;28;20048;-74
2021/01/20 07:29:33;;;;;;;9.43;6.63;;;7.70;92.50;;;;;;5019987;28;20073;-73
2021/01/20 07:32:03;;;;;;;7.55;6.25;;;7.70;92.50;;;;;;5019945;28;20041;-74
2021/01/20 07:34:42;;;;;;;10.48;6.88;;;7.70;92.60;;;;;;5034245;28;20033;-74
2021/01/20 07:37:11;;;;;;;9.05;6.18;;;7.70;92.70;;;;;;5026268;28;20056;-73
2021/01/20 07:39:43;;;;;;;6.57;5.82;;;7.60;92.80;;;;;;5017893;28;20034;-73
2021/01/20 07:42:09;;;;;;;7.22;5.20;;;7.70;92.60;;;;;;5019088;28;20033;-73
2021/01/20 07:44:45;;;;;;;9.60;5.57;;;7.70;92.60;;;;;;5016264;28;20045;-73
2021/01/20 07:47:11;;;;;;;8.77;5.75;;;7.70;92.50;;;;;;5017254;28;20072;-73
2021/01/20 07:49:38;;;;;;;9.00;5.13;;;7.70;92.30;;;;;;5018133;28;20061;-74
2021/01/20 07:52:09;;;;;;;10.00;4.85;;;7.70;92.30;;;;;;5021234;28;20112;-73
2021/01/20 07:54:46;;;;;;;6.57;4.65;;;7.70;92.20;;;;;;5020419;28;20045;-73
2021/01/20 07:57:20;;;;;;;6.35;5.10;;;7.70;92.20;;;;;;5017923;28;20412;-73
2021/01/20 08:00:02;;;;;;;7.22;5.35;;;7.70;92.20;;;;;;5016803;28;20050;-73
2021/01/20 08:02:28;;;;;;;7.88;5.22;;;7.70;92.00;;;;;;5021005;28;20067;-72
2021/01/20 08:05:03;;;;;;;6.35;4.20;;;7.80;92.10;;;;;;5016770;28;20487;-72
2021/01/20 08:07:30;;;;;;;5.75;4.30;;;7.80;91.90;;;;;;5023290;28;20037;-72
2021/01/20 08:09:56;;;;;;;11.73;5.03;;;7.80;91.80;;;;;;5022278;28;20087;-72
2021/01/20 08:12:30;;;;;;;6.72;4.45;;;7.80;91.70;;;;;;5016925;28;20133;-72
2021/01/20 08:14:57;;;;;;;7.70;5.43;;;7.90;92.00;;;;;;5019401;28;20383;-72
2021/01/20 08:17:23;;;;;;;6.78;4.70;;;7.80;91.80;;;;;;5022816;28;20065;-72
2021/01/20 08:19:49;;;;;;;5.82;4.65;;;7.90;91.60;;;;;;5025618;28;20042;-72
2021/01/20 08:22:16;;;;;;;6.10;5.10;;;7.90;91.70;;;;;;5023553;28;20050;-72
2021/01/20 08:24:50;;;;;;;7.38;5.55;;;7.90;91.60;;;;;;5018861;28;20072;-72
2021/01/20 08:27:28;;;;;;;9.13;4.53;;;7.90;91.50;;;;;;5018396;28;20038;-72
2021/01/20 08:29:56;;;;;;;5.53;4.22;;;8.00;91.40;;;;;;5027707;28;20419;-72
2021/01/20 08:32:22;;;;;;;7.68;4.47;;;8.00;91.40;;;;;;5026646;28;20521;-73
2021/01/20 08:34:49;;;;;;;7.35;4.72;;;8.00;91.30;;;;;;5026280;28;20141;-73
2021/01/20 08:37:18;;;;;;;6.13;3.90;;;8.00;91.40;;;;;;5026426;28;20065;-73
2021/01/20 08:39:57;;;;;;;9.48;4.32;;;8.00;91.20;;;;;;5023865;28;20094;-73
2021/01/20 08:42:32;;;;;;;5.65;4.57;;;8.10;91.20;;;;;;5027961;28;20044;-72
2021/01/20 08:45:19;;;;;;;6.93;4.63;;;8.20;90.90;;;;;;5029691;28;20033;-73
2021/01/20 08:48:27;;;;;;;5.97;4.43;;;8.20;90.90;;;;;;5028524;28;20044;-73
2021/01/20 08:50:56;;;;;;;5.35;4.00;;;8.20;90.90;;;;;;4992143;28;20038;-73
2021/01/20 08:53:25;;;;;;;5.43;3.92;;;8.20;90.70;;;;;;5023226;28;20056;-73
2021/01/20 08:55:52;;;;;;;6.00;3.97;;;8.20;90.70;;;;;;5031328;28;20037;-73
2021/01/20 08:58:31;;;;;;;5.90;4.00;;;8.20;90.70;;;;;;5027160;28;20471;-72
2021/01/20 09:01:13;;;;;;;5.07;3.60;;;8.30;90.70;;;;;;5025104;28;20050;-73
2021/01/20 09:03:39;;;;;;;6.22;3.50;;;8.30;90.70;;;;;;5030369;28;20045;-72
2021/01/20 09:06:16;;;;;;;4.50;3.63;;;8.30;90.60;;;;;;5030326;28;20487;-72
2021/01/20 09:08:41;;;;;;;5.47;3.88;;;8.40;90.50;;;;;;5029175;28;20041;-73
2021/01/20 09:11:08;;;;;;;4.43;3.33;;;8.40;90.70;;;;;;5028475;28;20038;-73
2021/01/20 09:13:34;;;;;;;3.90;3.45;;;8.40;90.40;;;;;;5031364;28;20037;-73
2021/01/20 09:15:59;;;;;;;5.55;3.58;;;8.50;90.40;;;;;;5028231;28;20048;-72
2021/01/20 09:18:25;;;;;;;6.75;3.75;;;8.50;90.50;;;;;;5026469;28;20038;-72
2021/01/20 09:20:52;;;;;;;5.10;3.80;;;8.50;90.30;;;;;;5026146;28;20113;-73
2021/01/20 09:23:18;;;;;;;4.47;3.85;;;8.50;90.30;;;;;;5030859;28;20041;-73
2021/01/20 09:25:44;;;;;;;3.85;3.28;;;8.50;90.50;;;;;;5035685;28;20073;-73
2021/01/20 09:28:10;;;;;;;3.92;3.17;;;8.50;90.30;;;;;;5031612;28;20115;-73
2021/01/20 09:30:35;;;;;;;5.18;3.40;;;8.60;90.20;;;;;;5031094;28;20402;-73
2021/01/20 09:33:01;;;;;;;3.53;3.10;;;8.60;90.30;;;;;;5029893;28;20134;-73
2021/01/20 09:35:27;;;;;;;7.68;4.05;;;8.60;90.20;;;;;;5032763;28;20484;-73
2021/01/20 09:37:53;;;;;;;4.28;3.20;;;8.60;90.10;;;;;;5022338;28;20052;-72
2021/01/20 09:40:21;;;;;;;5.63;3.60;;;8.60;90.40;;;;;;5027231;28;20391;-73
2021/01/20 09:42:48;;;;;;;3.65;3.17;;;8.60;90.10;;;;;;5027232;28;20033;-72
2021/01/20 09:45:15;;;;;;;4.55;3.65;;;8.60;90.20;;;;;;5029966;28;20490;-73
2021/01/20 09:47:43;;;;;;;5.20;3.25;;;8.70;90.30;;;;;;5025694;28;20056;-73
2021/01/20 09:50:11;;;;;;;6.82;3.33;;;8.80;90.30;;;;;;5029289;28;20034;-73
2021/01/20 09:52:37;;;;;;;4.70;2.80;;;8.70;90.30;;;;;;5027157;28;20025;-73
2021/01/20 09:55:04;;;;;;;3.72;2.72;;;8.70;90.30;;;;;;5030183;28;20045;-73
2021/01/20 09:57:33;;;;;;;3.55;2.88;;;8.70;90.00;;;;;;5025538;28;20072;-73
2021/01/20 09:59:59;;;;;;;3.40;2.63;;;8.70;90.20;;;;;;5028964;28;20483;-73
2021/01/20 10:02:25;;;;;;;3.90;2.70;;;8.70;90.10;;;;;;5028874;28;20044;-73
2021/01/20 10:04:51;;;;;;;4.65;3.03;;;8.80;90.00;;;;;;5032313;28;20045;-73
2021/01/20 10:07:17;;;;;;;4.10;2.67;;;9.20;90.30;;;;;;5030499;28;20037;-72
2021/01/20 10:09:43;;;;;;;4.05;2.80;;;8.80;90.10;;;;;;5027777;28;20040;-73
2021/01/20 10:12:11;;;;;;;5.45;2.70;;;8.80;90.10;;;;;;5033027;28;20099;-73
2021/01/20 10:14:37;;;;;;;3.58;2.30;;;8.80;90.30;;;;;;5029302;28;20484;-73
2021/01/20 10:17:05;;;;;;;3.53;2.40;;;8.80;90.10;;;;;;5032298;28;20099;-73
2021/01/20 10:19:31;;;;;;;3.78;2.40;;;8.80;90.20;;;;;;5030744;28;20073;-73
2021/01/20 10:21:57;;;;;;;4.78;2.78;;;8.80;90.10;;;;;;5027451;28;20053;-72
2021/01/20 10:24:23;;;;;;;4.00;2.25;;;8.80;90.00;;;;;;5032112;28;20065;-73
2021/01/20 10:26:48;;;;;;;2.72;2.28;;;8.90;90.00;;;;;;5029625;28;20029;-73
2021/01/20 10:29:14;;;;;;;2.58;2.38;;;8.90;90.00;;;;;;5026987;28;20045;-72
2021/01/20 10:31:41;;;;;;;3.33;2.60;;;8.90;90.20;;;;;;5024911;28;20050;-72
2021/01/20 10:34:08;;;;;;;4.30;2.60;;;8.90;90.30;;;;;;5025019;28;20727;-73
2021/01/20 10:36:34;;;;;;;3.28;2.53;;;8.90;90.40;;;;;;5029151;28;20034;-73
2021/01/20 10:39:00;;;;;;;3.42;2.55;;;8.90;90.50;;;;;;5025303;28;20041;-73
2021/01/20 10:41:26;;;;;;;4.72;2.28;;;8.90;90.40;;;;;;5029757;28;20040;-73
2021/01/20 10:43:53;;;;;;;3.22;2.22;;;8.90;90.30;;;;;;5029341;28;20033;-73
2021/01/20 10:46:25;;;;;;;3.63;2.15;;;8.90;90.30;;;;;;5026587;28;20073;-73
2021/01/20 10:48:51;;;;;;;3.05;2.08;;;9.00;90.40;;;;;;5027280;28;20043;-73
2021/01/20 10:51:17;;;;;;;3.35;2.50;;;9.00;90.40;;;;;;5030302;28;20125;-73
2021/01/20 10:53:43;;;;;;;3.28;1.95;;;9.00;90.30;;;;;;5028162;28;20112;-73
2021/01/20 10:56:09;;;;;;;3.03;1.90;;;9.00;90.10;;;;;;5029757;28;20053;-73
2021/01/20 10:58:35;;;;;;;2.05;1.52;;;9.10;89.60;;;;;;5030431;28;20440;-73
2021/01/20 11:01:02;;;;;;;2.55;1.73;;;9.10;89.50;;;;;;5028380;28;20060;-73
2021/01/20 11:03:29;;;;;;;2.50;1.90;;;9.10;89.20;;;;;;5026020;28;20041;-73
2021/01/20 11:05:54;;;;;;;3.00;2.03;;;9.10;90.00;;;;;;5025488;28;20046;-73
2021/01/20 11:08:20;;;;;;;3.35;1.42;;;9.20;89.30;;;;;;5028074;28;20128;-73
2021/01/20 11:10:46;;;;;;;4.30;1.80;;;9.10;89.80;;;;;;5025150;28;20043;-73
2021/01/20 11:13:12;;;;;;;4.50;1.83;;;9.10;89.70;;;;;;5026814;28;20030;-73
2021/01/20 11:15:39;;;;;;;2.58;1.83;;;9.10;89.10;;;;;;5024547;28;20034;-73
2021/01/20 11:18:05;;;;;;;2.95;1.50;;;9.20;88.70;;;;;;5026204;28;20570;-73
2021/01/20 11:20:31;;;;;;;3.15;2.05;;;9.20;88.10;;;;;;5031614;28;20132;-73
2021/01/20 11:22:57;;;;;;;4.15;1.77;;;9.30;88.50;;;;;;5028812;28;20037;-73
2021/01/20 11:25:23;;;;;;;2.78;1.52;;;9.30;87.90;;;;;;5022187;28;20063;-73
2021/01/20 11:27:50;;;;;;;2.45;1.60;;;9.30;87.80;;;;;;5025437;28;20045;-73
2021/01/20 11:30:19;;;;;;;2.75;1.42;;;9.40;87.50;;;;;;5027514;28;20067;-73
2021/01/20 11:32:45;;;;;;;5.32;1.63;;;9.40;87.40;;;;;;5027210;28;20055;-73
2021/01/20 11:35:12;;;;;;;2.85;1.48;;;9.40;87.70;;;;;;5028653;28;20079;-73
2021/01/20 11:37:39;;;;;;;1.73;1.30;;;9.40;86.90;;;;;;5029057;28;20038;-73
2021/01/20 11:40:05;;;;;;;2.60;1.55;;;9.40;87.10;;;;;;5030357;28;20392;-72
2021/01/20 11:42:31;;;;;;;3.22;1.48;;;9.40;86.70;;;;;;5023563;28;20056;-73
2021/01/20 11:44:57;;;;;;;2.40;1.52;;;9.50;86.40;;;;;;5022359;28;20041;-73
2021/01/20 11:47:23;;;;;;;4.80;1.67;;;9.50;86.40;;;;;;5028015;28;20037;-73
2021/01/20 11:49:50;;;;;;;2.00;1.30;;;9.50;86.00;;;;;;5026552;28;20033;-73
2021/01/20 11:52:17;;;;;;;2.25;1.17;;;9.60;84.60;;;;;;5027664;28;20465;-73
2021/01/20 11:54:43;;;;;;;2.42;1.70;;;9.60;85.10;;;;;;5027967;28;20036;-73
2021/01/20 11:57:09;;;;;;;1.67;1.20;;;9.60;85.20;;;;;;5030147;28;20128;-73
2021/01/20 11:59:35;;;;;;;7.97;1.48;;;9.60;84.60;;;;;;5031841;28;20132;-73
2021/01/20 12:02:01;;;;;;;2.28;1.33;;;9.60;83.90;;;;;;5023963;28;20033;-73
2021/01/20 12:04:27;;;;;;;2.88;1.60;;;9.70;83.30;;;;;;5029480;28;20057;-73
2021/01/20 12:06:53;;;;;;;2.17;1.50;;;9.70;83.60;;;;;;5030191;28;20292;-73
2021/01/20 12:09:19;;;;;;;3.03;1.63;;;9.70;82.70;;;;;;5029469;28;20037;-73
2021/01/20 12:11:46;;;;;;;3.58;1.52;;;9.70;81.70;;;;;;5030038;28;20116;-73
2021/01/20 12:14:11;;;;;;;2.53;1.50;;;9.70;81.90;;;;;;5029706;28;20045;-73
2021/01/20 12:16:38;;;;;;;2.65;1.42;;;9.70;82.60;;;;;;5026635;28;20045;-73
2021/01/20 12:19:04;;;;;;;2.28;0.95;;;9.70;80.50;;;;;;5024133;28;20080;-73
2021/01/20 12:21:29;;;;;;;3.78;1.25;;;9.70;79.60;;;;;;5025470;28;20029;-73
2021/01/20 12:23:55;;;;;;;1.63;0.90;;;9.70;80.40;;;;;;5025390;28;20451;-73
2021/01/20 12:26:21;;;;;;;1.95;1.25;;;9.80;80.30;;;;;;5018662;28;20064;-73
2021/01/20 12:28:46;;;;;;;2.88;1.15;;;9.80;79.90;;;;;;5026966;28;20041;-73
2021/01/20 12:31:12;;;;;;;1.70;1.00;;;9.80;79.10;;;;;;5024222;28;20409;-73
2021/01/20 12:33:38;;;;;;;2.20;1.23;;;9.80;79.50;;;;;;5025117;28;20034;-73
2021/01/20 12:36:04;;;;;;;2.38;1.27;;;9.90;80.00;;;;;;5025342;28;20130;-73
2021/01/20 12:38:30;;;;;;;2.13;0.88;;;9.90;79.90;;;;;;5028570;28;20115;-72
2021/01/20 12:40:56;;;;;;;2.00;1.10;;;9.90;80.20;;;;;;5022066;28;20041;-73
2021/01/20 12:43:21;;;;;;;3.05;1.02;;;10.00;80.30;;;;;;5032072;28;20387;-73
2021/01/20 12:45:47;;;;;;;7.05;1.23;;;10.00;79.20;;;;;;5022926;28;20044;-73
2021/01/20 12:48:13;;;;;;;3.60;1.23;;;10.00;80.60;;;;;;5027221;28;20104;-73
2021/01/20 12:50:39;;;;;;;3.00;1.17;;;10.10;79.50;;;;;;5026470;28;20044;-73
2021/01/20 12:53:04;;;;;;;2.03;0.95;;;10.00;79.40;;;;;;5025328;28;20060;-73
2021/01/20 12:55:30;;;;;;;2.83;1.35;;;10.10;79.00;;;;;;5027150;28;20488;-73
2021/01/20 12:57:56;;;;;;;2.60;0.90;;;10.10;79.70;;;;;;5025187;28;20053;-73